Latest Weather Observations for Cunderdin Airport

IDW60801

Issued at 9:33 am WST Sunday 31 July 2016 (issued every 30 minutes, with the page automatically refreshed every 10 minutes)

About weather observations | Map of weather stations | Latest weather observations for WA | Other Formats
Station Details ID: 010286 Name: CUNDERDIN AIRFIELD Lat: -31.62 Lon: 117.22 Height: 216.7 m
Data from the previous 72 hours. | See also: Recent months at Cunderdin Airport
Date/Time
WST
Temp
°C
App
Temp
°C
Dew
Point
°C
Rel
Hum
%
Delta-T
°C
Wind Press
QNH
hPa
Press
MSL
hPa
Rain since
9am
mm
Dir  Spd
km/h
Gust
km/h
Spd
kts
Gust
kts
31/09:30am 12.4 6.8 8.7 78 1.9 WSW 28 39 15 21 1018.3 1018.5 0.0
31/09:00am 12.9 9.2 10.1 83 1.5 W 20 30 11 16 1017.5 1017.7 1.4
31/08:30am 12.0 9.3 10.4 90 0.8 WNW 15 20 8 11 1017.0 1017.2 1.4
31/08:00am 11.2 8.4 10.0 92 0.6 WNW 15 19 8 10 1016.5 1016.6 1.4
31/07:30am 11.1 7.3 9.9 92 0.6 W 20 24 11 13 1015.9 1016.0 1.4
31/07:00am 11.0 8.7 10.4 96 0.3 WNW 13 17 7 9 1015.6 1015.7 1.4
31/06:30am 10.4 7.5 9.8 96 0.3 NW 15 20 8 11 1015.2 1015.3 1.2
31/06:00am 9.7 6.9 8.6 93 0.5 N 13 17 7 9 1015.0 1015.1 0.2
31/05:30am 9.9 5.8 8.7 92 0.6 NW 20 24 11 13 1014.7 1014.8 0.2
31/05:00am 8.8 5.8 7.7 93 0.5 NW 13 17 7 9 1014.5 1014.6 0.0
31/04:30am 9.3 5.5 7.6 89 0.8 N 17 22 9 12 1014.1 1014.3 0.0
31/04:00am 9.8 5.1 7.9 88 0.9 N 22 28 12 15 1014.1 1014.3 0.0
31/03:30am 10.2 5.5 7.8 85 1.2 N 22 32 12 17 1014.0 1014.2 0.0
31/03:00am 10.3 5.7 8.1 86 1.1 N 22 30 12 16 1014.2 1014.4 0.0
31/02:30am 10.4 5.5 8.3 87 1.0 N 24 33 13 18 1014.5 1014.6 0.0
31/02:00am 10.3 5.8 8.6 89 0.8 N 22 30 12 16 1014.9 1015.0 0.0
31/01:30am 10.2 5.7 8.6 90 0.8 N 22 30 12 16 1015.0 1015.1 0.0
31/01:00am 10.0 6.5 8.8 92 0.6 N 17 22 9 12 1015.5 1015.6 0.0
31/12:30am 10.8 6.8 9.1 89 0.9 N 20 30 11 16 1015.7 1015.8 0.0
31/12:00am 10.6 6.7 8.7 88 0.9 N 19 26 10 14 1015.6 1015.7 0.0
 
Date/Time
WST
Temp
°C
App
Temp
°C
Dew
Point
°C
Rel
Hum
%
Delta-T
°C
Wind Press
QNH
hPa
Press
MSL
hPa
Rain since
9am
mm
Dir  Spd
km/h
Gust
km/h
Spd
kts
Gust
kts
30/11:30pm 10.5 6.6 8.8 89 0.8 N 19 26 10 14 1016.0 1016.1 0.0
30/11:00pm 10.7 6.8 8.8 88 0.9 N 19 24 10 13 1016.4 1016.5 0.0
30/10:30pm 10.9 7.0 8.8 87 1.1 N 19 26 10 14 1016.7 1016.8 0.0
30/10:00pm 10.9 7.4 8.7 86 1.1 N 17 22 9 12 1016.8 1016.9 0.0
30/09:30pm 11.3 7.8 8.9 85 1.2 N 17 22 9 12 1017.2 1017.4 0.0
30/09:00pm 10.4 7.2 8.3 87 1.0 N 15 19 8 10 1017.0 1017.2 0.0
30/08:30pm 10.6 6.9 8.0 84 1.3 N 17 20 9 11 1017.1 1017.3 0.0
30/08:00pm 11.4 7.4 8.1 80 1.6 N 19 22 10 12 1017.0 1017.2 0.0
30/07:30pm 11.3 7.5 7.6 78 1.8 N 17 20 9 11 1016.8 1016.9 0.0
30/07:00pm 11.7 8.3 7.6 76 2.0 NNW 15 20 8 11 1016.6 1016.7 0.0
30/06:30pm 11.6 8.3 7.9 78 1.8 WNW 15 17 8 9 1016.5 1016.6 0.0
30/06:00pm 12.8 9.2 8.3 74 2.3 W 17 24 9 13 1016.4 1016.5 0.0
30/05:30pm 13.9 10.4 8.9 72 2.6 W 17 22 9 12 1016.1 1016.2 0.0
30/05:00pm 15.1 10.9 8.3 64 3.5 WNW 20 30 11 16 1015.8 1015.9 0.0
30/04:30pm 16.4 12.0 8.9 61 3.9 WNW 22 32 12 17 1015.4 1015.5 0.0
30/04:00pm 17.1 11.4 8.3 56 4.5 WNW 28 35 15 19 1015.4 1015.5 0.0
30/03:30pm 17.3 11.6 8.2 55 4.7 NW 28 35 15 19 1015.5 1015.6 0.0
30/03:00pm 17.7 12.8 8.6 55 4.7 WNW 24 33 13 18 1015.4 1015.5 0.0
30/02:30pm 17.9 13.8 8.7 55 4.8 NW 20 28 11 15 1015.5 1015.6 0.0
30/02:00pm 16.8 11.9 8.5 58 4.3 NNW 24 32 13 17 1015.7 1015.8 0.0
30/01:30pm 17.3 12.9 9.0 58 4.3 WNW 22 32 12 17 1015.9 1016.0 0.0
30/01:00pm 17.2 12.4 8.9 58 4.3 NNW 24 32 13 17 1016.5 1016.6 0.0
30/12:30pm 17.5 13.3 9.7 60 4.1 NW 22 30 12 16 1016.9 1017.0 0.0
30/12:00pm 16.7 12.2 8.7 59 4.1 NW 22 32 12 17 1017.4 1017.6 0.0
30/11:30am 16.7 12.2 8.4 58 4.3 NNW 22 37 12 20 1017.8 1018.0 0.0
30/11:00am 16.5 12.9 9.7 64 3.6 NW 19 28 10 15 1017.9 1018.1 0.0
30/10:30am 15.8 13.1 9.0 64 3.5 NW 13 19 7 10 1018.3 1018.5 0.0
30/10:00am 15.3 13.1 10.7 74 2.5 WNW 13 17 7 9 1018.4 1018.6 0.0
30/09:30am 14.1 12.4 11.1 82 1.6 W 11 15 6 8 1018.5 1018.7 0.0
30/09:00am 12.4 11.3 10.8 90 0.8 NNW 7 11 4 6 1018.4 1018.6 0.2
30/08:30am 10.5 9.7 9.6 94 0.5 NNW 4 7 2 4 1018.1 1018.3 0.2
30/08:00am 8.8 8.4 8.4 97 0.2 CALM 0 0 0 0 1017.8 1018.0 0.2
30/07:30am 7.4 5.4 7.0 97 0.2 WSW 7 9 4 5 1017.6 1017.8 0.2
30/07:00am 8.3 7.8 7.9 97 0.2 CALM 0 0 0 0 1017.4 1017.6 0.2
30/06:30am 8.2 6.3 7.6 96 0.3 WNW 7 11 4 6 1017.1 1017.3 0.0
30/06:00am 8.4 5.4 7.8 96 0.3 N 13 13 7 7 1016.8 1016.9 0.0
30/05:30am 9.3 6.5 8.7 96 0.3 W 13 13 7 7 1016.5 1016.6 0.0
30/05:00am 9.8 7.9 9.0 95 0.4 WNW 9 11 5 6 1016.3 1016.4 0.0
30/04:30am 11.6 9.4 10.7 94 0.5 WNW 13 13 7 7 1016.1 1016.2 0.0
30/04:00am 12.5 10.2 11.6 94 0.5 WNW 15 15 8 8 1016.2 1016.3 0.0
30/03:30am 13.1 10.9 12.2 94 0.5 WNW 15 17 8 9 1016.1 1016.2 0.0
30/03:00am 13.0 12.3 12.1 94 0.5 N 7 11 4 6 1015.7 1015.8 0.0
30/02:30am 13.3 11.5 12.0 92 0.7 NW 13 19 7 10 1015.6 1015.7 0.0
30/02:00am 14.0 11.1 12.4 90 0.9 NW 19 24 10 13 1015.5 1015.6 0.0
30/01:30am 14.4 11.3 12.3 87 1.2 NW 20 28 11 15 1015.5 1015.6 0.0
30/01:00am 14.6 11.5 12.3 86 1.3 NW 20 26 11 14 1015.2 1015.3 0.0
30/12:30am 14.7 11.8 12.4 86 1.3 NW 19 26 10 14 1015.2 1015.3 0.0
30/12:00am 14.8 12.4 12.8 88 1.1 NW 17 20 9 11 1015.2 1015.3 0.0
 
Date/Time
WST
Temp
°C
App
Temp
°C
Dew
Point
°C
Rel
Hum
%
Delta-T
°C
Wind Press
QNH
hPa
Press
MSL
hPa
Rain since
9am
mm
Dir  Spd
km/h
Gust
km/h
Spd
kts
Gust
kts
29/11:30pm 14.1 12.6 13.0 93 0.6 NNW 13 17 7 9 1015.0 1015.1 0.0
29/11:00pm 14.5 12.3 13.4 93 0.6 N 17 19 9 10 1015.1 1015.2 0.0
29/10:30pm 15.1 13.5 13.8 92 0.7 N 15 19 8 10 1015.3 1015.4 0.0
29/10:00pm 15.0 13.3 13.7 92 0.7 NNW 15 19 8 10 1015.4 1015.5 0.0
29/09:30pm 15.7 13.8 14.2 91 0.9 N 17 20 9 11 1015.4 1015.5 0.0
29/09:00pm 16.0 14.1 14.2 89 1.0 N 17 20 9 11 1015.1 1015.2 0.0
29/08:30pm 16.6 15.1 14.2 86 1.4 N 15 22 8 12 1015.1 1015.2 0.0
29/08:00pm 16.8 14.9 14.3 85 1.4 N 17 22 9 12 1014.6 1014.7 0.0
29/07:30pm 17.2 15.3 14.3 83 1.7 N 17 24 9 13 1014.3 1014.5 0.0
29/07:00pm 17.5 15.0 14.0 80 2.0 N 20 26 11 14 1014.2 1014.4 0.0
29/06:30pm 17.8 14.8 13.7 77 2.4 N 22 30 12 16 1013.7 1013.9 0.0
29/06:00pm 17.9 15.2 13.6 76 2.5 N 20 30 11 16 1013.4 1013.6 0.0
29/05:30pm 18.2 15.2 13.7 75 2.6 N 22 30 12 16 1013.2 1013.4 0.0
29/05:12pm 19.0 14.8 13.6 71 3.1 NNW 28 46 15 25 1013.0 1013.1 0.0
29/05:00pm 19.3 14.3 13.9 71 3.1 NNW 33 50 18 27 1013.0 1013.1 0.0
29/04:52pm 20.0 15.2 13.9 68 3.5 N 32 50 17 27 1013.0 1013.1 0.0
29/04:30pm 20.6 16.3 14.3 67 3.7 NNW 30 44 16 24 1013.0 1013.1 0.0
29/04:14pm 20.7 16.3 14.1 66 3.9 NNW 30 52 16 28 1012.7 1012.8 0.0
29/04:00pm 20.9 16.1 14.1 65 4.0 N 32 43 17 23 1012.7 1012.8 0.0
29/03:32pm 21.3 16.5 14.0 63 4.3 NNW 32 50 17 27 1012.7 1012.8 0.0
29/03:30pm 21.3 16.4 13.7 62 4.4 N 32 46 17 25 1012.7 1012.8 0.0
29/03:16pm 21.2 16.1 13.6 62 4.4 N 33 52 18 28 1012.7 1012.8 0.0
29/03:00pm 21.0 15.8 13.4 62 4.4 N 33 48 18 26 1012.6 1012.7 0.0
29/02:30pm 20.8 15.6 13.5 63 4.2 NNW 33 46 18 25 1012.8 1012.9 0.0
29/02:11pm 21.5 16.6 13.7 61 4.6 NNW 32 50 17 27 1012.6 1012.7 0.0
29/02:00pm 21.3 16.0 13.2 60 4.7 NNW 33 46 18 25 1012.6 1012.7 0.0
29/01:30pm 21.3 16.0 13.0 59 4.8 N 33 48 18 26 1012.9 1013.0 0.0
29/01:13pm 21.0 16.4 12.4 58 4.9 NNW 28 50 15 27 1013.5 1013.7 0.0
29/01:00pm 20.9 16.4 12.6 59 4.7 NNW 28 37 15 20 1013.6 1013.8 0.0
29/12:30pm 20.7 16.1 12.4 59 4.7 NNW 28 39 15 21 1014.1 1014.3 0.0
29/12:00pm 20.3 16.5 12.5 61 4.4 N 24 35 13 19 1014.8 1014.9 0.0
29/11:30am 19.6 15.0 10.9 57 4.8 NNW 26 39 14 21 1015.4 1015.5 0.0
29/11:00am 19.6 14.9 11.9 61 4.3 NNW 28 37 15 20 1015.7 1015.8 0.0
29/10:30am 18.3 14.7 11.8 66 3.6 NNW 22 32 12 17 1016.4 1016.5 0.0
29/10:00am 17.3 14.5 11.3 68 3.3 N 17 20 9 11 1016.8 1016.9 0.0
29/09:30am 17.2 16.0 11.7 70 3.0 N 9 22 5 12 1017.0 1017.2 0.0
29/09:00am 15.3 14.3 10.9 75 2.4 N 7 11 4 6 1017.2 1017.4 0.0
29/08:30am 13.9 12.6 11.1 83 1.5 NNE 9 13 5 7 1017.2 1017.4 0.0
29/08:00am 13.0 12.2 10.9 87 1.1 N 6 9 3 5 1017.4 1017.6 0.0
29/07:30am 12.6 11.3 10.0 84 1.3 NNW 7 11 4 6 1017.5 1017.7 0.0
29/07:00am 11.7 10.5 9.6 87 1.1 N 6 9 3 5 1017.7 1017.9 0.0
29/06:30am 11.2 11.3 10.1 93 0.6 CALM 0 0 0 0 1017.7 1017.9 0.0
29/06:00am 11.1 11.1 9.9 92 0.6 CALM 0 0 0 0 1017.8 1018.0 0.0
29/05:30am 11.0 9.8 9.4 90 0.8 ESE 6 7 3 4 1017.4 1017.6 0.0
29/05:00am 10.4 8.9 9.3 93 0.6 SE 7 9 4 5 1017.4 1017.6 0.0
29/04:30am 10.0 8.1 9.2 95 0.4 E 9 9 5 5 1017.4 1017.6 0.0
29/04:00am 9.9 8.4 9.1 95 0.4 E 7 9 4 5 1017.6 1017.8 0.0
29/03:30am 9.6 9.0 8.8 95 0.4 E 2 9 1 5 1018.0 1018.2 0.0
29/03:00am 9.4 9.1 8.8 96 0.3 CALM 0 6 0 3 1018.4 1018.6 0.0
29/02:30am 9.1 8.8 8.5 96 0.3 CALM 0 0 0 0 1018.7 1018.9 0.0
29/02:00am 9.6 9.0 9.0 96 0.3 E 2 6 1 3 1019.0 1019.2 0.0
29/01:30am 9.2 7.6 8.6 96 0.3 E 7 7 4 4 1019.1 1019.3 0.0
29/01:00am 9.7 8.8 9.1 96 0.3 SE 4 7 2 4 1019.4 1019.5 0.0
29/12:30am 9.4 9.1 8.5 94 0.4 CALM 0 0 0 0 1019.6 1019.7 0.0
29/12:00am 10.2 10.1 9.3 94 0.5 CALM 0 0 0 0 1019.8 1019.9 0.0
 
Date/Time
WST
Temp
°C
App
Temp
°C
Dew
Point
°C
Rel
Hum
%
Delta-T
°C
Wind Press
QNH
hPa
Press
MSL
hPa
Rain since
9am
mm
Dir  Spd
km/h
Gust
km/h
Spd
kts
Gust
kts
28/11:30pm 10.2 10.1 9.3 94 0.5 CALM 0 0 0 0 1020.2 1020.3 0.0
28/11:00pm 11.0 10.6 9.9 93 0.6 NE 2 9 1 5 1020.4 1020.5 0.0
28/10:30pm 10.9 10.9 9.8 93 0.6 CALM 0 0 0 0 1020.5 1020.6 0.0
28/10:00pm 11.1 11.2 10.2 94 0.5 CALM 0 0 0 0 1020.8 1020.9 0.0
28/09:30pm 10.9 10.9 9.8 93 0.6 CALM 0 0 0 0 1021.1 1021.3 0.0
28/09:00pm 10.7 10.6 9.6 93 0.6 CALM 0 0 0 0 1020.9 1021.1 0.0
28/08:30pm 10.7 10.6 9.5 92 0.6 CALM 0 0 0 0 1021.2 1021.4 0.0
28/08:00pm 11.5 11.6 10.1 91 0.7 CALM 0 0 0 0 1020.8 1020.9 0.0
28/07:30pm 11.6 11.3 10.0 90 0.8 NE 2 6 1 3 1021.1 1021.3 0.0
28/07:00pm 12.3 12.5 10.5 89 0.9 CALM 0 0 0 0 1020.9 1021.1 0.0
28/06:30pm 12.7 12.8 10.2 85 1.3 CALM 0 0 0 0 1020.8 1020.9 0.0
28/06:00pm 15.3 15.6 10.9 75 2.4 CALM 0 0 0 0 1020.8 1020.9 0.0
28/05:30pm 15.8 15.8 9.9 68 3.1 CALM 0 0 0 0 1020.4 1020.5 0.0
28/05:00pm 16.4 16.8 11.3 72 2.8 CALM 0 0 0 0 1020.3 1020.4 0.0
28/04:30pm 16.8 16.9 10.2 65 3.5 CALM 0 0 0 0 1020.4 1020.5 0.0
28/04:00pm 17.5 17.7 10.6 64 3.7 CALM 0 6 0 3 1020.3 1020.4 0.0
28/03:30pm 17.7 16.6 10.1 61 4.1 SSW 6 7 3 4 1020.2 1020.3 0.0
28/03:00pm 18.7 17.6 10.8 60 4.3 S 7 11 4 6 1020.1 1020.2 0.0
28/02:30pm 17.8 16.8 10.2 61 4.1 SSW 6 11 3 6 1020.4 1020.5 0.0
28/02:00pm 18.8 18.8 9.8 56 4.8 CALM 0 0 0 0 1020.3 1020.4 0.0
28/01:30pm 18.0 17.2 9.6 58 4.5 SSW 4 9 2 5 1020.6 1020.7 0.0
28/01:00pm 17.1 15.9 10.2 64 3.7 SW 7 9 4 5 1021.0 1021.2 0.0
28/12:30pm 17.2 15.4 9.4 60 4.1 WSW 9 13 5 7 1021.3 1021.5 0.0
28/12:00pm 17.6 15.9 9.8 60 4.1 NW 9 15 5 8 1021.6 1021.8 0.0
28/11:30am 17.6 16.8 9.8 60 4.2 N 4 9 2 5 1022.0 1022.2 0.0
28/11:00am 15.5 14.7 8.3 62 3.7 NE 2 7 1 4 1022.4 1022.6 0.0
28/10:30am 14.1 13.3 8.3 68 2.9 ENE 2 7 1 4 1022.9 1023.1 0.0
28/10:00am 12.0 10.3 8.3 78 1.8 E 7 11 4 6 1023.1 1023.3 0.0

Other Formats:

Comma delimited format used in spreadsheet applications
http://www.bom.gov.au/fwo/IDW60801/IDW60801.95625.axf

JavaScript Object Notation format (JSON) in row-major order
http://www.bom.gov.au/fwo/IDW60801/IDW60801.95625.json